createdAt,value
2017-03-31T00:00:26.201Z,0
2017-03-31T00:01:35.784Z,0
2017-03-31T00:02:45.758Z,0
2017-03-31T00:03:55.339Z,0
2017-03-31T00:05:05.383Z,0
2017-03-31T00:06:15.301Z,0
2017-03-31T00:07:24.915Z,0
2017-03-31T00:08:34.855Z,0
2017-03-31T00:09:44.812Z,0
2017-03-31T00:10:55.038Z,0
2017-03-31T00:12:05.074Z,0
2017-03-31T00:13:14.968Z,0
2017-03-31T00:14:24.886Z,0
2017-03-31T00:15:34.815Z,0
2017-03-31T00:16:45.170Z,0
2017-03-31T00:17:54.507Z,0
2017-03-31T00:19:04.103Z,0
2017-03-31T00:20:13.696Z,0
2017-03-31T00:21:23.300Z,0
2017-03-31T00:22:33.178Z,0
2017-03-31T00:23:43.081Z,0
2017-03-31T00:24:52.775Z,0
2017-03-31T00:26:02.365Z,0
2017-03-31T00:27:12.355Z,0
2017-03-31T00:28:22.632Z,0
2017-03-31T00:29:32.614Z,0
2017-03-31T00:30:42.624Z,0
2017-03-31T00:31:52.531Z,0
2017-03-31T00:33:02.504Z,0
2017-03-31T00:34:12.363Z,0
2017-03-31T00:35:22.314Z,0
2017-03-31T00:36:32.259Z,0
2017-03-31T00:37:41.889Z,0
2017-03-31T00:38:51.511Z,0
2017-03-31T00:40:01.741Z,0
2017-03-31T00:41:11.365Z,0
2017-03-31T00:42:20.651Z,0
2017-03-31T00:43:30.460Z,0
2017-03-31T00:44:39.789Z,0
2017-03-31T00:45:50.013Z,0
2017-03-31T00:46:59.618Z,0
2017-03-31T00:48:09.562Z,0
2017-03-31T00:49:19.779Z,0
2017-03-31T00:50:29.401Z,0
2017-03-31T00:51:39.579Z,0
2017-03-31T00:52:49.498Z,0
2017-03-31T00:53:59.118Z,0
2017-03-31T00:55:08.744Z,0
2017-03-31T00:56:18.659Z,0
2017-03-31T00:57:28.893Z,0
2017-03-31T00:58:38.816Z,0
2017-03-31T00:59:48.737Z,0
2017-03-31T01:00:58.715Z,0
2017-03-31T01:02:08.655Z,0
2017-03-31T01:03:18.530Z,0
2017-03-31T01:04:28.430Z,0
2017-03-31T01:05:37.700Z,0
2017-03-31T01:06:47.854Z,0
2017-03-31T01:07:57.771Z,0
2017-03-31T01:09:07.968Z,0
2017-03-31T01:10:17.948Z,0
2017-03-31T01:11:27.544Z,0
2017-03-31T01:12:37.168Z,0
2017-03-31T01:13:46.818Z,0
2017-03-31T01:14:56.771Z,0
2017-03-31T01:16:06.686Z,0
2017-03-31T01:17:16.350Z,0
2017-03-31T01:18:25.615Z,0
2017-03-31T01:19:35.529Z,0
2017-03-31T01:20:45.677Z,0
2017-03-31T01:21:55.294Z,0
2017-03-31T01:23:04.910Z,0
2017-03-31T01:24:14.503Z,0
2017-03-31T01:25:24.476Z,0
2017-03-31T01:26:34.392Z,0
2017-03-31T01:27:44.297Z,0
2017-03-31T01:28:54.249Z,0
2017-03-31T01:30:03.927Z,0
2017-03-31T01:31:13.837Z,0
2017-03-31T01:32:23.654Z,0
2017-03-31T01:33:33.582Z,0
2017-03-31T01:34:43.269Z,0
2017-03-31T01:35:53.256Z,0
2017-03-31T01:37:02.863Z,0
2017-03-31T01:38:13.014Z,0
2017-03-31T01:39:22.656Z,0
2017-03-31T01:40:32.570Z,0
2017-03-31T01:41:42.638Z,0
2017-03-31T01:42:52.561Z,0
2017-03-31T01:44:02.794Z,0
2017-03-31T01:45:12.733Z,0
2017-03-31T01:46:22.642Z,0
2017-03-31T01:47:32.582Z,0
2017-03-31T01:48:42.219Z,0
2017-03-31T01:49:52.467Z,0
2017-03-31T01:51:02.436Z,0
2017-03-31T01:52:12.023Z,0
2017-03-31T01:53:22.029Z,0
2017-03-31T01:54:32.106Z,0
2017-03-31T01:55:42.293Z,0
2017-03-31T01:56:52.196Z,0
2017-03-31T01:58:01.838Z,0
2017-03-31T01:59:11.783Z,0
2017-03-31T02:00:21.775Z,0
2017-03-31T02:01:31.771Z,0
2017-03-31T02:02:41.739Z,0
2017-03-31T02:03:51.711Z,0
2017-03-31T02:05:01.666Z,0
2017-03-31T02:06:11.287Z,0
2017-03-31T02:07:21.512Z,0
2017-03-31T02:08:31.407Z,0
2017-03-31T02:09:41.346Z,0
2017-03-31T02:10:51.352Z,0
2017-03-31T02:12:00.961Z,0
2017-03-31T02:13:10.801Z,0
2017-03-31T02:14:20.080Z,0
2017-03-31T02:15:29.680Z,0
2017-03-31T02:16:39.586Z,0
2017-03-31T02:17:48.873Z,0
2017-03-31T02:18:59.111Z,0
2017-03-31T02:20:09.057Z,0
2017-03-31T02:21:18.694Z,0
2017-03-31T02:22:28.607Z,0
2017-03-31T02:23:38.260Z,0
2017-03-31T02:24:47.799Z,0
2017-03-31T02:25:57.709Z,0
2017-03-31T02:27:07.674Z,0
2017-03-31T02:28:20.842Z,0
2017-03-31T02:29:30.532Z,0
2017-03-31T02:30:40.739Z,0
2017-03-31T02:31:50.650Z,0
2017-03-31T02:33:00.603Z,0
2017-03-31T02:34:10.199Z,0
2017-03-31T02:35:20.180Z,0
2017-03-31T02:36:30.329Z,0
2017-03-31T02:37:39.595Z,0
2017-03-31T02:38:49.666Z,0
2017-03-31T02:39:59.618Z,0
2017-03-31T02:41:09.259Z,0
2017-03-31T02:42:19.449Z,0
2017-03-31T02:43:28.385Z,0
2017-03-31T02:44:37.823Z,0
2017-03-31T02:45:47.727Z,0
2017-03-31T02:46:57.778Z,0
2017-03-31T02:48:07.936Z,0
2017-03-31T02:49:17.846Z,0
2017-03-31T02:50:27.464Z,0
2017-03-31T02:51:37.395Z,0
2017-03-31T02:52:47.312Z,0
2017-03-31T02:53:57.511Z,0
2017-03-31T02:55:07.093Z,0
2017-03-31T02:56:17.003Z,0
2017-03-31T02:57:26.902Z,0
2017-03-31T02:58:36.230Z,0
2017-03-31T02:59:46.402Z,0
2017-03-31T03:00:56.313Z,0
2017-03-31T03:02:06.402Z,0
2017-03-31T03:03:16.301Z,0
2017-03-31T03:04:26.351Z,0
2017-03-31T03:05:36.611Z,0
2017-03-31T03:06:46.582Z,0
2017-03-31T03:07:56.538Z,0
2017-03-31T03:09:06.155Z,0
2017-03-31T03:10:15.764Z,0
2017-03-31T03:11:25.388Z,0
2017-03-31T03:12:34.966Z,0
2017-03-31T03:13:44.682Z,0
2017-03-31T03:14:54.584Z,0
2017-03-31T03:16:04.638Z,0
2017-03-31T03:17:14.870Z,0
2017-03-31T03:18:24.774Z,0
2017-03-31T03:19:34.447Z,0
2017-03-31T03:20:44.352Z,0
2017-03-31T03:21:53.938Z,0
2017-03-31T03:23:04.281Z,0
2017-03-31T03:24:14.181Z,0
2017-03-31T03:25:24.085Z,0
2017-03-31T03:26:34.041Z,0
2017-03-31T03:27:43.975Z,0
2017-03-31T03:28:54.145Z,0
2017-03-31T03:30:04.087Z,0
2017-03-31T03:31:13.849Z,0
2017-03-31T03:32:23.663Z,0
2017-03-31T03:33:33.252Z,0
2017-03-31T03:34:43.113Z,0
2017-03-31T03:35:52.813Z,0
2017-03-31T03:37:02.756Z,0
2017-03-31T03:38:12.351Z,0
2017-03-31T03:39:22.402Z,0
2017-03-31T03:40:32.242Z,0
2017-03-31T03:41:41.877Z,0
2017-03-31T03:42:51.468Z,0
2017-03-31T03:44:01.141Z,0
2017-03-31T03:45:11.034Z,0
2017-03-31T03:46:20.970Z,0
2017-03-31T03:47:30.614Z,0
2017-03-31T03:48:40.549Z,0
2017-03-31T03:49:49.813Z,0
2017-03-31T03:50:59.419Z,0
2017-03-31T03:52:09.336Z,0
2017-03-31T03:53:18.977Z,0
2017-03-31T03:54:28.872Z,0
2017-03-31T03:55:38.520Z,0
2017-03-31T03:56:48.436Z,0
2017-03-31T03:57:58.648Z,0
2017-03-31T03:59:08.617Z,0
2017-03-31T04:00:18.521Z,0
2017-03-31T04:01:28.426Z,0
2017-03-31T04:02:38.349Z,0
2017-03-31T04:03:48.655Z,0
2017-03-31T04:04:58.566Z,0
2017-03-31T04:06:08.497Z,0
2017-03-31T04:07:18.405Z,0
2017-03-31T04:08:28.309Z,0
2017-03-31T04:09:38.219Z,0
2017-03-31T04:10:48.110Z,0
2017-03-31T04:11:57.734Z,0
2017-03-31T04:13:07.318Z,0
2017-03-31T04:14:17.327Z,0
2017-03-31T04:15:27.487Z,0
2017-03-31T04:16:37.076Z,0
2017-03-31T04:17:46.518Z,0
2017-03-31T04:18:56.165Z,0
2017-03-31T04:20:05.425Z,4
2017-03-31T04:21:15.318Z,4
2017-03-31T04:22:24.688Z,0
2017-03-31T04:23:34.599Z,4
2017-03-31T04:24:44.590Z,4
2017-03-31T04:25:54.581Z,4
2017-03-31T04:27:04.834Z,4
2017-03-31T04:28:14.802Z,8
2017-03-31T04:29:24.395Z,8
2017-03-31T04:30:33.669Z,12
2017-03-31T04:31:43.587Z,12
2017-03-31T04:32:53.445Z,16
2017-03-31T04:34:03.376Z,24
2017-03-31T04:35:12.978Z,28
2017-03-31T04:36:23.032Z,32
2017-03-31T04:37:32.330Z,36
2017-03-31T04:38:42.204Z,48
2017-03-31T04:39:51.805Z,60
2017-03-31T04:41:01.710Z,68
2017-03-31T04:42:11.352Z,80
2017-03-31T04:43:21.264Z,92
2017-03-31T04:44:31.480Z,108
2017-03-31T04:45:41.495Z,120
2017-03-31T04:46:51.181Z,136
2017-03-31T04:48:01.127Z,148
2017-03-31T04:49:10.944Z,168
2017-03-31T04:50:21.262Z,184
2017-03-31T04:51:31.182Z,200
2017-03-31T04:52:40.482Z,224
2017-03-31T04:53:50.458Z,244
2017-03-31T04:54:59.721Z,268
2017-03-31T04:56:09.950Z,296
2017-03-31T04:57:19.897Z,328
2017-03-31T04:58:29.873Z,360
2017-03-31T04:59:39.176Z,396
2017-03-31T05:00:49.087Z,428
2017-03-31T05:01:58.979Z,464
2017-03-31T05:03:09.523Z,500
2017-03-31T05:04:19.160Z,536
2017-03-31T05:05:29.129Z,572
2017-03-31T05:06:38.757Z,608
2017-03-31T05:07:48.624Z,648
2017-03-31T05:08:58.219Z,688
2017-03-31T05:10:08.177Z,720
2017-03-31T05:11:17.441Z,756
2017-03-31T05:12:27.602Z,796
2017-03-31T05:13:37.793Z,840
2017-03-31T05:14:47.713Z,888
2017-03-31T05:15:57.320Z,932
2017-03-31T05:17:07.258Z,980
2017-03-31T05:18:17.173Z,1032
2017-03-31T05:19:27.328Z,1092
2017-03-31T05:20:37.264Z,1148
2017-03-31T05:21:47.211Z,1204
2017-03-31T05:22:56.896Z,1252
2017-03-31T05:24:06.843Z,1300
2017-03-31T05:25:17.398Z,1344
2017-03-31T05:26:27.344Z,1392
2017-03-31T05:27:37.251Z,1440
2017-03-31T05:28:46.872Z,1492
2017-03-31T05:29:56.213Z,1540
2017-03-31T05:31:06.439Z,1596
2017-03-31T05:32:16.016Z,1644
2017-03-31T05:33:25.971Z,1688
2017-03-31T05:34:35.881Z,1732
2017-03-31T05:35:45.787Z,1776
2017-03-31T05:36:55.995Z,1816
2017-03-31T05:38:05.898Z,1860
2017-03-31T05:39:15.969Z,1904
2017-03-31T05:40:25.915Z,1948
2017-03-31T05:42:08.096Z,2024
2017-03-31T05:43:18.042Z,2092
2017-03-31T05:44:28.032Z,2164
2017-03-31T05:45:37.676Z,2236
2017-03-31T05:46:47.297Z,2312
2017-03-31T05:47:57.451Z,2392
2017-03-31T05:49:07.443Z,2476
2017-03-31T05:50:17.426Z,2572
2017-03-31T05:51:27.394Z,2672
2017-03-31T05:52:37.300Z,2784
2017-03-31T05:53:47.520Z,2888
2017-03-31T05:54:57.445Z,2984
2017-03-31T05:56:07.373Z,3096
2017-03-31T05:57:17.276Z,3192
2017-03-31T05:58:26.581Z,3280
2017-03-31T05:59:36.412Z,3368
2017-03-31T06:00:46.337Z,3472
2017-03-31T06:01:56.317Z,3584
2017-03-31T06:03:06.228Z,3680
2017-03-31T06:04:15.498Z,3776
2017-03-31T06:05:25.734Z,3856
2017-03-31T06:06:35.430Z,3932
2017-03-31T06:07:45.010Z,4008
2017-03-31T06:08:54.611Z,4084
2017-03-31T06:10:04.196Z,4152
2017-03-31T06:11:13.399Z,4232
2017-03-31T06:12:23.324Z,4312
2017-03-31T06:13:33.304Z,4372
2017-03-31T06:14:42.906Z,4436
2017-03-31T06:15:52.830Z,4484
2017-03-31T06:17:02.989Z,4512
2017-03-31T06:18:12.595Z,4508
2017-03-31T06:19:22.555Z,4476
2017-03-31T06:20:32.531Z,4360
2017-03-31T06:21:42.434Z,4392
2017-03-31T06:22:51.964Z,4544
2017-03-31T06:24:01.641Z,4700
2017-03-31T06:25:11.227Z,4852
2017-03-31T06:26:21.170Z,4916
2017-03-31T06:27:31.117Z,4952
2017-03-31T06:28:41.035Z,4988
2017-03-31T06:29:50.617Z,5012
2017-03-31T06:31:00.534Z,4996
2017-03-31T06:32:10.433Z,5080
2017-03-31T06:33:19.863Z,5216
2017-03-31T06:34:29.713Z,5332
2017-03-31T06:35:39.339Z,5412
2017-03-31T06:36:49.252Z,5492
2017-03-31T06:37:58.910Z,5556
2017-03-31T06:39:08.859Z,5612
2017-03-31T06:40:18.714Z,5652
2017-03-31T06:41:28.671Z,5704
2017-03-31T06:42:38.276Z,5808
2017-03-31T06:43:47.881Z,5872
2017-03-31T06:44:57.466Z,5876
2017-03-31T06:46:07.661Z,5832
2017-03-31T06:47:17.261Z,5828
2017-03-31T06:48:27.168Z,5832
2017-03-31T06:49:37.096Z,5996
2017-03-31T06:50:46.366Z,6184
2017-03-31T06:51:56.593Z,6300
2017-03-31T06:53:06.180Z,6432
2017-03-31T06:54:15.459Z,6516
2017-03-31T06:55:25.054Z,6664
2017-03-31T06:56:35.063Z,6800
2017-03-31T06:57:45.267Z,6936
2017-03-31T06:58:55.281Z,7044
2017-03-31T07:00:05.236Z,7084
2017-03-31T07:01:14.829Z,7248
2017-03-31T07:02:24.749Z,7428
2017-03-31T07:03:34.945Z,7580
2017-03-31T07:04:44.564Z,7732
2017-03-31T07:05:53.832Z,7904
2017-03-31T07:07:03.788Z,8036
2017-03-31T07:08:13.734Z,8088
2017-03-31T07:09:23.951Z,8316
2017-03-31T07:10:33.952Z,8588
2017-03-31T07:11:43.573Z,8864
2017-03-31T07:12:53.528Z,9240
2017-03-31T07:14:03.167Z,9708
2017-03-31T07:15:13.450Z,10100
2017-03-31T07:16:22.762Z,10440
2017-03-31T07:17:32.682Z,10824
2017-03-31T07:18:42.577Z,11168
2017-03-31T07:19:52.477Z,11436
2017-03-31T07:21:02.321Z,11724
2017-03-31T07:22:11.925Z,11976
2017-03-31T07:23:21.601Z,12220
2017-03-31T07:24:31.303Z,12372
2017-03-31T07:25:41.108Z,12420
2017-03-31T07:26:51.388Z,12524
2017-03-31T07:28:01.322Z,12608
2017-03-31T07:29:11.026Z,12720
2017-03-31T07:30:21.216Z,12772
2017-03-31T07:31:31.159Z,12788
2017-03-31T07:32:41.034Z,12676
2017-03-31T07:33:50.947Z,12616
2017-03-31T07:35:00.878Z,12824
2017-03-31T07:36:10.832Z,13020
2017-03-31T07:37:20.745Z,13132
2017-03-31T07:38:30.926Z,13160
2017-03-31T07:39:40.887Z,13180
2017-03-31T07:40:50.875Z,13076
2017-03-31T07:42:00.966Z,12980
2017-03-31T07:43:10.866Z,12772
2017-03-31T07:44:21.074Z,12668
2017-03-31T07:45:30.775Z,12644
2017-03-31T07:46:40.681Z,12736
2017-03-31T07:47:50.355Z,13028
2017-03-31T07:49:00.518Z,13044
2017-03-31T07:50:10.679Z,12964
2017-03-31T07:51:20.732Z,12988
2017-03-31T07:52:29.991Z,12936
2017-03-31T07:53:39.902Z,13040
2017-03-31T07:54:49.832Z,13200
2017-03-31T07:55:59.686Z,13524
2017-03-31T07:57:09.611Z,13644
2017-03-31T07:58:19.518Z,13756
2017-03-31T07:59:29.513Z,13844
2017-03-31T08:00:39.439Z,13924
2017-03-31T08:01:49.270Z,14228
2017-03-31T08:03:00.796Z,14424
2017-03-31T08:04:10.977Z,14312
2017-03-31T08:05:20.953Z,14404
2017-03-31T08:06:31.520Z,14596
2017-03-31T08:07:42.121Z,14816
2017-03-31T08:08:52.674Z,14964
2017-03-31T08:10:02.915Z,15268
2017-03-31T08:11:13.443Z,15436
2017-03-31T08:12:23.932Z,15560
2017-03-31T08:13:35.792Z,16120
2017-03-31T08:14:46.325Z,16576
2017-03-31T08:15:56.856Z,16672
2017-03-31T08:17:07.384Z,16800
2017-03-31T08:18:17.566Z,16960
2017-03-31T08:19:28.066Z,17248
2017-03-31T08:20:38.569Z,17792
2017-03-31T08:21:48.400Z,19392
2017-03-31T08:22:58.972Z,25472
2017-03-31T08:24:09.162Z,30464
2017-03-31T08:25:20.001Z,33696
2017-03-31T08:26:30.585Z,36320
2017-03-31T08:27:40.828Z,34080
2017-03-31T08:28:51.352Z,35616
2017-03-31T08:30:02.843Z,36672
2017-03-31T08:31:13.313Z,35840
2017-03-31T08:32:23.295Z,35968
2017-03-31T08:33:33.588Z,36672
2017-03-31T08:34:43.758Z,38176
2017-03-31T08:35:53.655Z,44256
2017-03-31T08:37:04.420Z,39360
2017-03-31T08:38:14.697Z,36288
2017-03-31T08:39:25.002Z,37120
2017-03-31T08:40:35.519Z,39136
2017-03-31T08:41:46.663Z,44896
2017-03-31T08:42:57.468Z,48864
2017-03-31T08:44:08.673Z,39968
2017-03-31T08:45:18.886Z,33824
2017-03-31T08:46:29.161Z,35008
2017-03-31T08:47:39.354Z,36128
2017-03-31T08:48:49.847Z,51552
2017-03-31T08:50:00.098Z,47488
2017-03-31T08:51:10.325Z,44096
2017-03-31T08:52:21.493Z,54592
2017-03-31T08:53:32.330Z,55136
2017-03-31T08:54:43.148Z,56832
2017-03-31T08:55:53.651Z,52096
2017-03-31T08:57:03.931Z,51552
2017-03-31T08:58:14.142Z,54784
2017-03-31T08:59:25.610Z,52864
2017-03-31T09:00:36.166Z,52512
2017-03-31T09:01:46.039Z,49152
2017-03-31T09:02:56.302Z,55776
2017-03-31T09:04:06.860Z,63520
2017-03-31T09:05:16.811Z,56544
2017-03-31T09:06:27.359Z,59968
2017-03-31T09:07:37.880Z,68640
2017-03-31T09:08:48.370Z,66336
2017-03-31T09:09:58.579Z,65184
2017-03-31T09:11:09.135Z,73536
2017-03-31T09:12:19.957Z,70720
2017-03-31T09:13:30.120Z,61568
2017-03-31T09:14:39.973Z,65792
2017-03-31T09:15:50.484Z,56384
2017-03-31T09:17:00.658Z,62880
2017-03-31T09:18:11.113Z,79872
2017-03-31T09:19:22.618Z,78240
2017-03-31T09:20:33.194Z,73024
2017-03-31T09:21:43.767Z,67200
2017-03-31T09:22:54.331Z,64704
2017-03-31T09:24:04.458Z,56320
2017-03-31T09:25:14.962Z,65632
2017-03-31T09:26:26.515Z,72544
2017-03-31T09:27:36.842Z,76768
2017-03-31T09:28:47.038Z,72992
2017-03-31T09:29:57.981Z,61408
2017-03-31T09:31:08.872Z,71040
2017-03-31T09:32:19.444Z,77248
2017-03-31T09:33:30.933Z,74368
2017-03-31T09:34:41.133Z,71552
2017-03-31T09:35:51.904Z,70656
2017-03-31T09:37:03.462Z,73632
2017-03-31T09:38:13.386Z,73184
2017-03-31T09:39:24.586Z,79072
2017-03-31T09:40:35.186Z,83648
2017-03-31T09:41:45.947Z,77280
2017-03-31T09:42:56.476Z,60064
2017-03-31T09:44:07.635Z,60896
2017-03-31T09:45:18.173Z,68800
2017-03-31T09:46:28.538Z,84224
2017-03-31T09:47:39.377Z,96960
2017-03-31T09:48:49.646Z,90816
2017-03-31T09:50:00.188Z,92096
2017-03-31T09:51:10.744Z,94112
2017-03-31T09:52:21.377Z,88992
2017-03-31T09:53:32.845Z,79008
2017-03-31T09:54:43.352Z,73056
2017-03-31T09:55:53.894Z,79168
2017-03-31T09:57:04.402Z,96352
2017-03-31T09:58:14.646Z,93792
2017-03-31T09:59:25.447Z,78272
2017-03-31T10:00:35.733Z,70080
2017-03-31T10:01:46.281Z,92672
2017-03-31T10:02:56.801Z,93056
2017-03-31T10:04:08.289Z,73664
2017-03-31T10:05:19.105Z,93824
2017-03-31T10:06:29.755Z,98144
2017-03-31T10:07:40.301Z,83552
2017-03-31T10:08:50.521Z,80448
2017-03-31T10:10:01.100Z,72256
2017-03-31T10:11:11.880Z,81600
2017-03-31T10:12:22.242Z,91072
2017-03-31T10:13:32.474Z,88096
2017-03-31T10:14:42.997Z,89792
2017-03-31T10:15:53.190Z,93152
2017-03-31T10:17:03.692Z,88512
2017-03-31T10:18:13.919Z,81920
2017-03-31T10:19:24.437Z,79296
2017-03-31T10:20:34.682Z,82016
2017-03-31T10:21:44.507Z,78304
2017-03-31T10:22:55.309Z,75136
2017-03-31T10:24:05.841Z,74112
2017-03-31T10:25:16.359Z,89056
2017-03-31T10:26:27.100Z,86720
2017-03-31T10:27:37.668Z,77312
2017-03-31T10:28:48.574Z,81824
2017-03-31T10:29:58.855Z,93440
2017-03-31T10:31:09.503Z,88512
2017-03-31T10:32:20.066Z,74016
2017-03-31T10:33:30.019Z,72256
2017-03-31T10:34:40.817Z,77344
2017-03-31T10:35:51.448Z,76704
2017-03-31T10:37:02.224Z,79744
2017-03-31T10:38:12.779Z,91584
2017-03-31T10:39:23.322Z,88288
2017-03-31T10:40:33.822Z,77632
2017-03-31T10:41:43.537Z,71360
2017-03-31T10:42:53.769Z,75808
2017-03-31T10:44:04.086Z,89472
2017-03-31T10:45:14.711Z,97184
2017-03-31T10:46:25.190Z,90048
2017-03-31T10:47:35.489Z,82912
2017-03-31T10:48:47.074Z,75104
2017-03-31T10:49:57.619Z,73952
2017-03-31T10:51:08.173Z,73888
2017-03-31T10:52:18.729Z,75584
2017-03-31T10:53:30.358Z,76384
2017-03-31T10:54:40.957Z,73440
2017-03-31T10:55:51.186Z,60992
2017-03-31T10:57:01.398Z,76288
2017-03-31T10:58:11.626Z,71552
2017-03-31T10:59:22.242Z,60864
2017-03-31T11:00:32.765Z,67136
2017-03-31T11:01:43.321Z,75968
2017-03-31T11:02:53.943Z,71520
2017-03-31T11:04:04.089Z,68800
2017-03-31T11:05:14.433Z,69056
2017-03-31T11:06:25.285Z,76960
2017-03-31T11:07:35.818Z,75648
2017-03-31T11:08:46.447Z,77664
2017-03-31T11:09:57.197Z,77888
2017-03-31T11:11:07.455Z,80768
2017-03-31T11:12:18.002Z,89376
2017-03-31T11:13:28.190Z,84704
2017-03-31T11:14:38.407Z,72320
2017-03-31T11:15:50.161Z,85376
2017-03-31T11:17:00.782Z,65728
2017-03-31T11:18:11.078Z,58496
2017-03-31T11:19:21.616Z,64192
2017-03-31T11:20:32.134Z,105216
2017-03-31T11:21:42.928Z,109376
2017-03-31T11:22:54.433Z,106560
2017-03-31T11:24:04.937Z,95680
2017-03-31T11:25:15.514Z,65888
2017-03-31T11:26:26.148Z,68096
2017-03-31T11:27:36.930Z,94240
2017-03-31T11:28:47.591Z,82496
2017-03-31T11:29:59.073Z,73984
2017-03-31T11:31:09.280Z,98944
2017-03-31T11:32:19.797Z,92768
2017-03-31T11:33:30.579Z,88128
2017-03-31T11:34:40.789Z,99712
2017-03-31T11:35:52.274Z,98368
2017-03-31T11:37:02.579Z,93536
2017-03-31T11:38:13.334Z,87168
2017-03-31T11:39:24.153Z,79232
2017-03-31T11:40:34.316Z,67456
2017-03-31T11:41:44.829Z,84512
2017-03-31T11:42:55.394Z,101088
2017-03-31T11:44:05.258Z,74016
2017-03-31T11:45:16.086Z,63840
2017-03-31T11:46:26.698Z,91552
2017-03-31T11:47:37.223Z,88224
2017-03-31T11:48:47.787Z,56960
2017-03-31T11:49:58.376Z,49600
2017-03-31T11:51:08.506Z,62496
2017-03-31T11:52:19.057Z,67840
2017-03-31T11:53:28.941Z,77184
2017-03-31T11:54:39.176Z,70400
2017-03-31T11:55:49.409Z,67808
2017-03-31T11:57:00.171Z,71840
2017-03-31T11:58:10.711Z,49248
2017-03-31T11:59:20.954Z,32000
2017-03-31T12:00:31.543Z,34976
2017-03-31T12:01:41.796Z,57792
2017-03-31T12:02:52.287Z,50368
2017-03-31T12:04:02.859Z,59232
2017-03-31T12:05:13.452Z,50304
2017-03-31T12:06:24.073Z,51456
2017-03-31T12:07:34.571Z,54112
2017-03-31T12:08:45.340Z,55008
2017-03-31T12:09:55.552Z,63712
2017-03-31T12:11:05.878Z,72064
2017-03-31T12:12:17.524Z,50464
2017-03-31T12:13:28.082Z,43584
2017-03-31T12:14:38.965Z,43392
2017-03-31T12:15:49.273Z,39424
2017-03-31T12:16:59.081Z,38560
2017-03-31T12:18:09.625Z,35392
2017-03-31T12:19:19.833Z,32960
2017-03-31T12:20:31.273Z,29504
2017-03-31T12:21:41.512Z,41984
2017-03-31T12:22:53.072Z,43072
2017-03-31T12:24:02.787Z,46784
2017-03-31T12:25:13.337Z,40992
2017-03-31T12:26:23.783Z,46048
2017-03-31T12:27:34.414Z,54336
2017-03-31T12:28:44.655Z,62656
2017-03-31T12:29:54.956Z,61088
2017-03-31T12:31:05.535Z,65152
2017-03-31T12:32:15.772Z,72704
2017-03-31T12:33:26.424Z,64960
2017-03-31T12:34:37.952Z,57344
2017-03-31T12:35:48.313Z,62336
2017-03-31T12:36:58.884Z,70816
2017-03-31T12:38:09.774Z,70368
2017-03-31T12:39:20.304Z,77984
2017-03-31T12:40:30.983Z,78080
2017-03-31T12:42:13.346Z,60800
2017-03-31T12:43:24.131Z,68160
2017-03-31T12:44:34.367Z,80928
2017-03-31T12:45:44.559Z,76096
2017-03-31T12:46:55.081Z,63776
2017-03-31T12:48:05.705Z,72288
2017-03-31T12:49:16.471Z,82624
2017-03-31T12:50:27.638Z,74880
2017-03-31T12:51:38.198Z,62240
2017-03-31T12:52:48.398Z,59072
2017-03-31T12:53:59.028Z,57984
2017-03-31T12:55:09.472Z,58176
2017-03-31T12:56:20.024Z,58720
2017-03-31T12:57:30.571Z,56192
2017-03-31T12:58:42.045Z,53024
2017-03-31T12:59:52.574Z,49184
2017-03-31T13:01:03.418Z,46816
2017-03-31T13:02:13.638Z,50016
2017-03-31T13:03:23.886Z,54528
2017-03-31T13:04:34.398Z,43360
2017-03-31T13:05:44.627Z,42048
2017-03-31T13:06:55.444Z,38272
2017-03-31T13:08:05.786Z,34368
2017-03-31T13:09:16.340Z,37536
2017-03-31T13:10:26.297Z,30112
2017-03-31T13:11:37.089Z,26464
2017-03-31T13:12:47.660Z,28768
2017-03-31T13:13:58.204Z,36608
2017-03-31T13:15:08.714Z,35456
2017-03-31T13:16:19.297Z,41792
2017-03-31T13:17:29.828Z,40896
2017-03-31T13:18:40.307Z,44096
2017-03-31T13:19:50.553Z,38912
2017-03-31T13:21:01.336Z,54528
2017-03-31T13:22:12.770Z,58816
2017-03-31T13:23:23.430Z,61376
2017-03-31T13:24:33.831Z,61888
2017-03-31T13:25:44.389Z,70624
2017-03-31T13:26:54.938Z,68160
2017-03-31T13:28:06.425Z,66112
2017-03-31T13:29:17.907Z,66720
2017-03-31T13:30:29.698Z,75872
2017-03-31T13:31:40.897Z,62976
2017-03-31T13:32:51.477Z,41536
2017-03-31T13:34:01.995Z,52448
2017-03-31T13:35:12.530Z,42208
2017-03-31T13:36:23.120Z,39072
2017-03-31T13:37:34.598Z,28256
2017-03-31T13:38:45.122Z,29728
2017-03-31T13:39:55.676Z,62624
2017-03-31T13:41:07.791Z,59616
2017-03-31T13:42:18.267Z,58176
2017-03-31T13:43:29.245Z,61952
2017-03-31T13:44:39.992Z,59520
2017-03-31T13:45:50.545Z,63520
2017-03-31T13:47:00.448Z,59712
2017-03-31T13:48:10.641Z,62912
2017-03-31T13:49:21.551Z,65184
2017-03-31T13:50:31.982Z,48896
2017-03-31T13:51:42.674Z,57440
2017-03-31T13:52:53.368Z,58016
2017-03-31T13:54:03.964Z,55072
2017-03-31T13:55:15.824Z,42944
2017-03-31T13:56:26.360Z,46528
2017-03-31T13:57:36.608Z,48320
2017-03-31T13:58:47.146Z,48736
2017-03-31T13:59:57.661Z,39424
2017-03-31T14:01:08.136Z,44608
2017-03-31T14:02:18.370Z,41024
2017-03-31T14:03:28.596Z,30976
2017-03-31T14:04:38.849Z,29664
2017-03-31T14:05:48.833Z,31552
2017-03-31T14:06:59.656Z,33088
2017-03-31T14:08:09.935Z,36192
2017-03-31T14:09:20.538Z,32160
2017-03-31T14:10:30.730Z,31648
2017-03-31T14:11:42.232Z,34080
2017-03-31T14:12:52.946Z,33088
2017-03-31T14:14:04.254Z,32832
2017-03-31T14:15:14.800Z,32736
2017-03-31T14:16:24.993Z,29312
2017-03-31T14:17:35.504Z,27872
2017-03-31T14:18:46.258Z,27136
2017-03-31T14:19:56.439Z,29056
2017-03-31T14:21:06.619Z,29728
2017-03-31T14:22:17.175Z,27936
2017-03-31T14:23:27.864Z,29856
2017-03-31T14:24:38.646Z,32000
2017-03-31T14:25:49.263Z,30432
2017-03-31T14:26:59.457Z,26976
2017-03-31T14:28:09.972Z,24864
2017-03-31T14:29:20.512Z,24224
2017-03-31T14:30:31.309Z,25536
2017-03-31T14:31:41.916Z,26336
2017-03-31T14:32:52.148Z,24416
2017-03-31T14:34:02.682Z,23648
2017-03-31T14:35:13.294Z,24736
2017-03-31T14:36:23.409Z,25120
2017-03-31T14:37:33.021Z,25408
2017-03-31T14:38:43.240Z,23584
2017-03-31T14:39:53.843Z,22880
2017-03-31T14:41:04.396Z,23584
2017-03-31T14:42:15.322Z,22560
2017-03-31T14:43:25.529Z,21984
2017-03-31T14:44:35.733Z,20832
2017-03-31T14:45:46.259Z,19520
2017-03-31T14:46:56.792Z,19520
2017-03-31T14:48:07.703Z,16896
2017-03-31T14:49:18.921Z,16768
2017-03-31T14:50:29.202Z,17312
2017-03-31T14:51:39.417Z,16160
2017-03-31T14:52:49.705Z,17344
2017-03-31T14:54:00.479Z,20032
2017-03-31T14:55:10.351Z,23776
2017-03-31T14:56:20.925Z,23104
2017-03-31T14:57:31.455Z,24800
2017-03-31T14:58:42.062Z,25536
2017-03-31T14:59:53.784Z,28128
2017-03-31T15:01:05.007Z,27264
2017-03-31T15:02:15.540Z,24960
2017-03-31T15:03:26.403Z,21952
2017-03-31T15:04:36.624Z,19904
2017-03-31T15:05:47.068Z,19808
2017-03-31T15:06:57.190Z,19712
2017-03-31T15:08:08.658Z,20192
2017-03-31T15:09:19.071Z,20640
2017-03-31T15:10:29.598Z,20512
2017-03-31T15:11:40.420Z,20736
2017-03-31T15:12:50.689Z,21920
2017-03-31T15:14:00.889Z,20832
2017-03-31T15:15:11.412Z,20384
2017-03-31T15:16:21.325Z,19968
2017-03-31T15:17:32.180Z,21536
2017-03-31T15:18:43.720Z,23456
2017-03-31T15:19:54.288Z,25088
2017-03-31T15:21:05.009Z,23072
2017-03-31T15:22:16.564Z,21792
2017-03-31T15:23:28.418Z,19072
2017-03-31T15:24:39.002Z,15776
2017-03-31T15:25:49.506Z,14704
2017-03-31T15:27:00.076Z,16864
2017-03-31T15:28:10.610Z,21184
2017-03-31T15:29:21.369Z,23072
2017-03-31T15:30:31.916Z,23648
2017-03-31T15:31:42.438Z,29088
2017-03-31T15:32:53.169Z,34464
2017-03-31T15:34:03.370Z,37280
2017-03-31T15:35:14.034Z,36256
2017-03-31T15:36:24.624Z,34368
2017-03-31T15:37:35.228Z,31008
2017-03-31T15:38:45.096Z,36224
2017-03-31T15:39:56.765Z,34016
2017-03-31T15:41:07.582Z,35904
2017-03-31T15:42:22.762Z,38688
2017-03-31T15:43:35.660Z,38784
2017-03-31T15:44:51.553Z,35552
2017-03-31T15:46:02.729Z,30464
2017-03-31T15:47:21.709Z,29504